Arcadia, Illinois
Current Conditions -  °F | °C
As of 1:35 PM on Friday 24 Oct 2014 (Local Time) from KIJX Reporting Station
Clear Clear  
Wind Chill: 20°   Ceiling: Unl
Heat Index: 20°   Visibility: 10mi
Dew Point: 13°   Wind: 6mph
Humidity: 60%   Direction: 210°SSW
Pressure: 30.05"   Gusts: NA
Location:  39.7413°N, 90.2138°W
Report Text: KIJX 241835Z AUTO 21005KT 10SM CLR 20/13 A3005 RMK AO2 T02040125
Loading
Personal Weather Stations






























Interactive Weather Map
Tropical Storm Tracking
New forecast layout! Learn more

10-Day Weather Forecast

Advertisements
Track Severe Weather on mobile